^^
Meteo Knjazevac Station Historical Data
Daily Summary for September 12, 2022 Units:  Both    English   Metric
Daily Weekly Monthly Yearly Custom
  High: Low: Average:
Temperature: 58.6 °F /  14.8 °C 43.5 °F /  6.4 °C 48.3 °F /  9.1 °C
Dew Point: 52.2 °F /  11.2 °C 42.6 °F /  5.9 °C 45.9 °F /  7.7 °C
Humidity: 99% 65.7% 92%
Wind Speed: 12.9mph /  20.8km/h - 3.7mph /  6km/h
Wind Gust: 18mph /  29km/h - -
Wind- - SE
Pressure: 30.48 in /  1032.1 hPa 30.44 in /  1030.7 hPa -
Precipitation: 0.19 in /  4.83 mm    
Historical Graphs
 
 
Tabular Data for September 12, 2022
Time Temperature Dew Point Pressure Wind Wind Speed Wind Gust Humidity Rainfall Rate (Hourly) solar Conditions
00:04 43.7 °F /  6.5 °C 43.2 °F /  6.2 °C 30.48in /  1032.1hPa Calm   1mph /  1.6km/h 98% 0.00in /  0mm 0 W/m2
00:09 43.7 °F /  6.5 °C 43.2 °F /  6.2 °C 30.48in /  1032.1hPa Calm     98% 0.00in /  0mm 0 W/m2
00:14 43.7 °F /  6.5 °C 43.2 °F /  6.2 °C 30.48in /  1032.1hPa WSW 1.4mph /  2.3km/h 0.7mph /  1.1km/h 98% 0.00in /  0mm 0 W/m2
00:19 43.7 °F /  6.5 °C 43.2 °F /  6.2 °C 30.47in /  1031.7hPa South 0.6mph /  1km/h 2mph /  3.2km/h 98% 0.00in /  0mm 0 W/m2
00:24 43.7 °F /  6.5 °C 43.2 °F /  6.2 °C 30.48in /  1032.1hPa SSE 0.9mph /  1.4km/h 2mph /  3.2km/h 98% 0.00in /  0mm 0 W/m2
00:29 43.7 °F /  6.5 °C 43.2 °F /  6.2 °C 30.47in /  1031.7hPa Calm   2mph /  3.2km/h 98% 0.00in /  0mm 0 W/m2
00:34 43.7 °F /  6.5 °C 43.2 °F /  6.2 °C 30.47in /  1031.7hPa Calm     98% 0.00in /  0mm 0 W/m2
00:39 43.7 °F /  6.5 °C 43.2 °F /  6.2 °C 30.47in /  1031.7hPa Calm     98% 0.00in /  0mm 0 W/m2
00:44 43.7 °F /  6.5 °C 43.2 °F /  6.2 °C 30.46in /  1031.4hPa Calm     97.8% 0.00in /  0mm 0 W/m2
00:49 43.7 °F /  6.5 °C 42.6 °F /  5.9 °C 30.46in /  1031.4hPa Calm     96.1% 0.00in /  0mm 0 W/m2
00:54 43.6 °F /  6.4 °C 42.6 °F /  5.9 °C 30.46in /  1031.4hPa Calm     96% 0.00in /  0mm 0 W/m2
00:59 43.5 °F /  6.4 °C 42.7 °F /  5.9 °C 30.46in /  1031.4hPa WSW 1.3mph /  2.1km/h 1.3mph /  2.1km/h 96.7% 0.00in /  0mm 0 W/m2
01:04 43.5 °F /  6.4 °C 43 °F /  6.1 °C 30.46in /  1031.4hPa Calm   2mph /  3.2km/h 98% 0.00in /  0mm 0 W/m2
01:09 43.5 °F /  6.4 °C 43.2 °F /  6.2 °C 30.46in /  1031.4hPa North 0.7mph /  1.1km/h 1.1mph /  1.8km/h 98.5% 0.00in /  0mm 0 W/m2
01:14 43.6 °F /  6.4 °C 43.3 °F /  6.3 °C 30.46in /  1031.4hPa NNE 2.2mph /  3.5km/h 2mph /  3.2km/h 98.6% 0.00in /  0mm 0 W/m2
01:19 43.7 °F /  6.5 °C 43.4 °F /  6.3 °C 30.46in /  1031.4hPa NNE 0.7mph /  1.1km/h 2mph /  3.2km/h 99% 0.00in /  0mm 0 W/m2
01:24 43.8 °F /  6.6 °C 43.4 °F /  6.3 °C 30.46in /  1031.4hPa NNE 1.2mph /  1.9km/h 1mph /  1.6km/h 98.7% 0.00in /  0mm 0 W/m2
01:29 43.9 °F /  6.6 °C 43.4 °F /  6.3 °C 30.46in /  1031.4hPa NNE 0.4mph /  0.6km/h 2mph /  3.2km/h 98% 0.00in /  0mm 0 W/m2
01:34 43.9 °F /  6.6 °C 43.4 °F /  6.3 °C 30.46in /  1031.4hPa NNE 0.3mph /  0.5km/h 1mph /  1.6km/h 98% 0.00in /  0mm 0 W/m2
01:39 44 °F /  6.7 °C 43.4 °F /  6.3 °C 30.46in /  1031.4hPa NNE 1.9mph /  3.1km/h 2mph /  3.2km/h 98% 0.00in /  0mm 0 W/m2
01:44 44.1 °F /  6.7 °C 43.7 °F /  6.5 °C 30.46in /  1031.4hPa NNE 0.5mph /  0.8km/h 2mph /  3.2km/h 98.5% 0.00in /  0mm 0 W/m2
01:49 44.1 °F /  6.7 °C 43.5 °F /  6.4 °C 30.46in /  1031.4hPa Calm   1mph /  1.6km/h 98% 0.00in /  0mm 0 W/m2
01:54 44.1 °F /  6.7 °C 43.5 °F /  6.4 °C 30.46in /  1031.4hPa NE 0.5mph /  0.8km/h   98% 0.00in /  0mm 0 W/m2
01:59 44.1 °F /  6.7 °C 43.5 °F /  6.4 °C 30.46in /  1031.4hPa NNE 0.4mph /  0.6km/h 1mph /  1.6km/h 98% 0.00in /  0mm 0 W/m2
02:04 44.1 °F /  6.7 °C 43.5 °F /  6.4 °C 30.46in /  1031.4hPa West 0.5mph /  0.8km/h 1mph /  1.6km/h 98% 0.00in /  0mm 0 W/m2
02:09 44.1 °F /  6.7 °C 43.5 °F /  6.4 °C 30.46in /  1031.4hPa NW 0.6mph /  1km/h 1mph /  1.6km/h 98% 0.00in /  0mm 0 W/m2
02:14 44.1 °F /  6.7 °C 43.5 °F /  6.4 °C 30.45in /  1031hPa NW 0.6mph /  1km/h 1mph /  1.6km/h 98% 0.00in /  0mm 0 W/m2
02:19 44.1 °F /  6.7 °C 43.5 °F /  6.4 °C 30.45in /  1031hPa NW 0.9mph /  1.4km/h 1mph /  1.6km/h 98% 0.00in /  0mm 0 W/m2
02:24 44.1 °F /  6.7 °C 43.5 °F /  6.4 °C 30.45in /  1031hPa WNW 1.3mph /  2.1km/h 2mph /  3.2km/h 98% 0.00in /  0mm 0 W/m2
02:29 44.2 °F /  6.8 °C 43.6 °F /  6.4 °C 30.45in /  1031hPa West 0.3mph /  0.5km/h 2mph /  3.2km/h 98% 0.00in /  0mm 0 W/m2
02:34 44.2 °F /  6.8 °C 43.7 °F /  6.5 °C 30.45in /  1031hPa West 0.2mph /  0.3km/h 1mph /  1.6km/h 98% 0.00in /  0mm 0 W/m2
02:39 44.2 °F /  6.8 °C 43.7 °F /  6.5 °C 30.45in /  1031hPa NNW 0.3mph /  0.5km/h 1mph /  1.6km/h 98% 0.00in /  0mm 0 W/m2
02:44 44.2 °F /  6.8 °C 43.7 °F /  6.5 °C 30.45in /  1031hPa Calm   1mph /  1.6km/h 98% 0.00in /  0mm 0 W/m2
02:49 44.2 °F /  6.8 °C 43.7 °F /  6.5 °C 30.45in /  1031hPa Calm     98% 0.00in /  0mm 0 W/m2
02:54 44.2 °F /  6.8 °C 43.7 °F /  6.5 °C 30.44in /  1030.7hPa Calm     98% 0.00in /  0mm 0 W/m2
02:59 44.3 °F /  6.8 °C 43.9 °F /  6.6 °C 30.45in /  1031hPa West 1.1mph /  1.8km/h 0.2mph /  0.3km/h 98.3% 0.00in /  0mm 0 W/m2
03:04 44.4 °F /  6.9 °C 44.1 °F /  6.7 °C 30.44in /  1030.7hPa WNW 0.5mph /  0.8km/h 2mph /  3.2km/h 98.5% 0.00in /  0mm 0 W/m2
03:09 44.4 °F /  6.9 °C 44.1 °F /  6.7 °C 30.44in /  1030.7hPa Calm   2mph /  3.2km/h 98.5% 0.00in /  0mm 0 W/m2
03:14 44.4 °F /  6.9 °C 44.2 °F /  6.8 °C 30.45in /  1031hPa North 1.3mph /  2.1km/h 1.8mph /  2.9km/h 99% 0.00in /  0mm 0 W/m2
03:19 44.6 °F /  7 °C 44.3 °F /  6.8 °C 30.45in /  1031hPa NNE 2.9mph /  4.7km/h 2.7mph /  4.3km/h 99% 0.00in /  0mm 0 W/m2
03:24 44.6 °F /  7 °C 44.3 °F /  6.8 °C 30.45in /  1031hPa NE 3.4mph /  5.5km/h 3mph /  4.8km/h 99% 0.00in /  0mm 0 W/m2
03:29 44.6 °F /  7 °C 44.3 °F /  6.8 °C 30.45in /  1031hPa NNE 3.4mph /  5.5km/h 4mph /  6.4km/h 99% 0.01in /  0.25mm 0 W/m2
03:34 44.6 °F /  7 °C 44.3 °F /  6.8 °C 30.45in /  1031hPa NNE 2.8mph /  4.5km/h 4mph /  6.4km/h 99% 0.01in /  0.25mm 0 W/m2
03:39 44.6 °F /  7 °C 44.3 °F /  6.8 °C 30.45in /  1031hPa North 2.8mph /  4.5km/h 3mph /  4.8km/h 99% 0.03in /  0.76mm 0 W/m2
03:44 44.6 °F /  7 °C 44.3 °F /  6.8 °C 30.45in /  1031hPa NNE 4.2mph /  6.8km/h 5mph /  8km/h 99% 0.04in /  1.02mm 0 W/m2
03:49 44.5 °F /  6.9 °C 44.2 °F /  6.8 °C 30.45in /  1031hPa NNE 4mph /  6.4km/h 5mph /  8km/h 99% 0.04in /  1.02mm 0 W/m2
03:54 44.2 °F /  6.8 °C 44 °F /  6.7 °C 30.45in /  1031hPa NNE 4.1mph /  6.6km/h 5mph /  8km/h 99% 0.05in /  1.27mm 0 W/m2
03:59 44.1 °F /  6.7 °C 43.8 °F /  6.6 °C 30.45in /  1031hPa NNE 3.5mph /  5.6km/h 5mph /  8km/h 99% 0.05in /  1.27mm 0 W/m2
04:04 44.1 °F /  6.7 °C 43.8 °F /  6.6 °C 30.45in /  1031hPa NNE 2mph /  3.2km/h 4mph /  6.4km/h 99% 0.05in /  1.27mm 0 W/m2
04:09 44.1 °F /  6.7 °C 43.8 °F /  6.6 °C 30.45in /  1031hPa NNW 1.6mph /  2.6km/h 2mph /  3.2km/h 99% 0.06in /  1.52mm 0 W/m2
04:14 44.1 °F /  6.7 °C 43.8 °F /  6.6 °C 30.45in /  1031hPa WNW 1.3mph /  2.1km/h 2mph /  3.2km/h 99% 0.07in /  1.78mm 0 W/m2
04:19 43.9 °F /  6.6 °C 43.6 °F /  6.4 °C 30.45in /  1031hPa NW 1.4mph /  2.3km/h 2mph /  3.2km/h 99% 0.06in /  1.52mm 0 W/m2
04:24 43.9 °F /  6.6 °C 43.6 °F /  6.4 °C 30.45in /  1031hPa NW 1.2mph /  1.9km/h 2mph /  3.2km/h 99% 0.07in /  1.78mm 0 W/m2
04:29 43.9 °F /  6.6 °C 43.6 °F /  6.4 °C 30.45in /  1031hPa WNW 1.3mph /  2.1km/h 2mph /  3.2km/h 99% 0.08in /  2.03mm 0 W/m2
04:34 43.9 °F /  6.6 °C 43.6 °F /  6.4 °C 30.45in /  1031hPa WNW 0.9mph /  1.4km/h 2mph /  3.2km/h 99% 0.08in /  2.03mm 0 W/m2
04:39 43.8 °F /  6.6 °C 43.5 °F /  6.4 °C 30.45in /  1031hPa West 1.8mph /  2.9km/h 2mph /  3.2km/h 99% 0.08in /  2.03mm 0 W/m2
04:44 43.7 °F /  6.5 °C 43.4 °F /  6.3 °C 30.45in /  1031hPa NW 1.6mph /  2.6km/h 2mph /  3.2km/h 99% 0.07in /  1.78mm 0 W/m2
04:49 43.7 °F /  6.5 °C 43.4 °F /  6.3 °C 30.45in /  1031hPa NW 2.1mph /  3.4km/h 2mph /  3.2km/h 99% 0.07in /  1.78mm 0 W/m2
04:54 43.7 °F /  6.5 °C 43.4 °F /  6.3 °C 30.45in /  1031hPa NW 1.2mph /  1.9km/h 2mph /  3.2km/h 99% 0.07in /  1.78mm 0 W/m2
04:59 43.7 °F /  6.5 °C 43.4 °F /  6.3 °C 30.45in /  1031hPa NNW 2mph /  3.2km/h 2mph /  3.2km/h 99% 0.07in /  1.78mm 0 W/m2
05:04 43.7 °F /  6.5 °C 43.4 °F /  6.3 °C 30.45in /  1031hPa NNE 3mph /  4.8km/h 2.2mph /  3.5km/h 99% 0.08in /  2.03mm 0 W/m2
05:09 43.8 °F /  6.6 °C 43.5 °F /  6.4 °C 30.45in /  1031hPa NNE 2.9mph /  4.7km/h 4mph /  6.4km/h 99% 0.08in /  2.03mm 0 W/m2
05:14 43.9 °F /  6.6 °C 43.6 °F /  6.4 °C 30.45in /  1031hPa NNE 2.6mph /  4.2km/h 3mph /  4.8km/h 99% 0.08in /  2.03mm 0 W/m2
05:19 43.9 °F /  6.6 °C 43.6 °F /  6.4 °C 30.45in /  1031hPa North 2.5mph /  4km/h 3mph /  4.8km/h 99% 0.09in /  2.29mm 0 W/m2
05:24 43.9 °F /  6.6 °C 43.6 °F /  6.4 °C 30.45in /  1031hPa North 1.6mph /  2.6km/h 2mph /  3.2km/h 99% 0.09in /  2.29mm 0 W/m2
05:29 43.9 °F /  6.6 °C 43.6 °F /  6.4 °C 30.45in /  1031hPa North 1.8mph /  2.9km/h 2mph /  3.2km/h 99% 0.08in /  2.03mm 0 W/m2
05:34 43.9 °F /  6.6 °C 43.6 °F /  6.4 °C 30.45in /  1031hPa North 0.6mph /  1km/h 3mph /  4.8km/h 99% 0.08in /  2.03mm 0 W/m2
05:39 43.8 °F /  6.6 °C 43.5 °F /  6.4 °C 30.45in /  1031hPa North 0.4mph /  0.6km/h 1mph /  1.6km/h 99% 0.08in /  2.03mm 0 W/m2
05:44 43.7 °F /  6.5 °C 43.4 °F /  6.3 °C 30.45in /  1031hPa Calm   1mph /  1.6km/h 99% 0.07in /  1.78mm 0 W/m2
05:49 43.7 °F /  6.5 °C 43.4 °F /  6.3 °C 30.45in /  1031hPa Calm     99% 0.07in /  1.78mm 0 W/m2
05:54 43.7 °F /  6.5 °C 43.4 °F /  6.3 °C 30.45in /  1031hPa NNW 0.8mph /  1.3km/h   99% 0.07in /  1.78mm 0 W/m2
05:59 43.8 °F /  6.6 °C 43.5 °F /  6.4 °C 30.45in /  1031hPa North 1.9mph /  3.1km/h 3.8mph /  6.1km/h 99% 0.07in /  1.78mm 0 W/m2
06:04 43.9 °F /  6.6 °C 43.6 °F /  6.4 °C 30.45in /  1031hPa NNE 3.7mph /  6km/h 5mph /  8km/h 99% 0.06in /  1.52mm 0 W/m2
06:09 43.9 °F /  6.6 °C 43.6 °F /  6.4 °C 30.45in /  1031hPa NNE 2.5mph /  4km/h 3mph /  4.8km/h 99% 0.06in /  1.52mm 0 W/m2
06:14 43.9 °F /  6.6 °C 43.6 °F /  6.4 °C 30.45in /  1031hPa NNE 2mph /  3.2km/h 3mph /  4.8km/h 99% 0.05in /  1.27mm 0 W/m2
06:19 43.9 °F /  6.6 °C 43.6 °F /  6.4 °C 30.45in /  1031hPa Calm   2mph /  3.2km/h 99% 0.04in /  1.02mm 1 W/m2
06:24 43.9 °F /  6.6 °C 43.6 °F /  6.4 °C 30.45in /  1031hPa Calm     99% 0.03in /  0.76mm 2 W/m2
06:29 43.9 °F /  6.6 °C 43.6 °F /  6.4 °C 30.45in /  1031hPa NNW 0.2mph /  0.3km/h   99% 0.03in /  0.76mm 4 W/m2
06:34 44 °F /  6.7 °C 43.7 °F /  6.5 °C 30.45in /  1031hPa North 1.9mph /  3.1km/h 2mph /  3.2km/h 99% 0.02in /  0.51mm 6 W/m2
06:39 44.1 °F /  6.7 °C 43.8 °F /  6.6 °C 30.46in /  1031.4hPa NE 1.5mph /  2.4km/h 2mph /  3.2km/h 99% 0.02in /  0.51mm 8 W/m2
06:44 44.1 °F /  6.7 °C 43.8 °F /  6.6 °C 30.46in /  1031.4hPa ENE 0.7mph /  1.1km/h 2mph /  3.2km/h 99% 0.01in /  0.25mm 11 W/m2
06:49 44.1 °F /  6.7 °C 43.8 °F /  6.6 °C 30.45in /  1031hPa NE 0.7mph /  1.1km/h 1mph /  1.6km/h 99% 0.01in /  0.25mm 13 W/m2
06:54 44.1 °F /  6.7 °C 43.9 °F /  6.6 °C 30.46in /  1031.4hPa WNW 1mph /  1.6km/h 1mph /  1.6km/h 99% 0.00in /  0mm 18 W/m2
06:59 44.2 °F /  6.8 °C 44 °F /  6.7 °C 30.46in /  1031.4hPa WSW 0.9mph /  1.4km/h 1mph /  1.6km/h 99% 0.00in /  0mm 23 W/m2
07:04 44.2 °F /  6.8 °C 44 °F /  6.7 °C 30.46in /  1031.4hPa NW 2.9mph /  4.7km/h 2.2mph /  3.5km/h 99% 0.00in /  0mm 31 W/m2
07:09 44.4 °F /  6.9 °C 44.2 °F /  6.8 °C 30.46in /  1031.4hPa North 2.1mph /  3.4km/h 5mph /  8km/h 99% 0.00in /  0mm 37 W/m2
07:14 44.5 °F /  6.9 °C 44.2 °F /  6.8 °C 30.46in /  1031.4hPa NE 3.4mph /  5.5km/h 3mph /  4.8km/h 99% 0.00in /  0mm 45 W/m2
07:19 44.6 °F /  7 °C 44.3 °F /  6.8 °C 30.46in /  1031.4hPa NNE 4.4mph /  7.1km/h 6mph /  9.7km/h 99% 0.00in /  0mm 57 W/m2
07:24 44.8 °F /  7.1 °C 44.6 °F /  7 °C 30.46in /  1031.4hPa NNE 6.7mph /  10.8km/h 6mph /  9.7km/h 99% 0.00in /  0mm 81 W/m2
07:29 45 °F /  7.2 °C 44.7 °F /  7.1 °C 30.46in /  1031.4hPa North 5.1mph /  8.2km/h 8mph /  12.9km/h 99% 0.00in /  0mm 87 W/m2
07:34 45.2 °F /  7.3 °C 44.9 °F /  7.2 °C 30.46in /  1031.4hPa North 4.4mph /  7.1km/h 6mph /  9.7km/h 99% 0.00in /  0mm 94 W/m2
07:39 45.4 °F /  7.4 °C 45.1 °F /  7.3 °C 30.46in /  1031.4hPa North 4.9mph /  7.9km/h 5mph /  8km/h 99% 0.00in /  0mm 103 W/m2
07:44 45.5 °F /  7.5 °C 45.2 °F /  7.3 °C 30.47in /  1031.7hPa North 4mph /  6.4km/h 6mph /  9.7km/h 99% 0.00in /  0mm 112 W/m2
07:49 45.7 °F /  7.6 °C 45.4 °F /  7.4 °C 30.47in /  1031.7hPa NNE 2.1mph /  3.4km/h 5mph /  8km/h 99% 0.00in /  0mm 117 W/m2
07:54 45.8 °F /  7.7 °C 45.5 °F /  7.5 °C 30.47in /  1031.7hPa East 3.7mph /  6km/h 3mph /  4.8km/h 99% 0.00in /  0mm 108 W/m2
07:59 45.9 °F /  7.7 °C 45.7 °F /  7.6 °C 30.47in /  1031.7hPa East 3.4mph /  5.5km/h 5mph /  8km/h 99% 0.00in /  0mm 87 W/m2
08:04 46 °F /  7.8 °C 45.8 °F /  7.7 °C 30.47in /  1031.7hPa ESE 3.5mph /  5.6km/h 5mph /  8km/h 99% 0.00in /  0mm 95 W/m2
08:09 46 °F /  7.8 °C 45.8 °F /  7.7 °C 30.47in /  1031.7hPa ESE 2.9mph /  4.7km/h 5mph /  8km/h 99% 0.00in /  0mm 147 W/m2
08:14 46.1 °F /  7.8 °C 45.9 °F /  7.7 °C 30.47in /  1031.7hPa ESE 2.9mph /  4.7km/h 3mph /  4.8km/h 99% 0.00in /  0mm 156 W/m2
08:19 46.3 °F /  7.9 °C 46 °F /  7.8 °C 30.47in /  1031.7hPa WNW 1.7mph /  2.7km/h 3mph /  4.8km/h 99% 0.00in /  0mm 98 W/m2
08:24 46.5 °F /  8.1 °C 46.2 °F /  7.9 °C 30.47in /  1031.7hPa WSW 2.5mph /  4km/h 2mph /  3.2km/h 99% 0.00in /  0mm 219 W/m2
08:29 47 °F /  8.3 °C 46.8 °F /  8.2 °C 30.47in /  1031.7hPa SW 2.3mph /  3.7km/h 3mph /  4.8km/h 99% 0.00in /  0mm 238 W/m2
08:34 47.7 °F /  8.7 °C 47.5 °F /  8.6 °C 30.47in /  1031.7hPa WSW 2.6mph /  4.2km/h 3mph /  4.8km/h 99% 0.00in /  0mm 209 W/m2
08:39 47.9 °F /  8.8 °C 47.7 °F /  8.7 °C 30.47in /  1031.7hPa West 2.2mph /  3.5km/h 3mph /  4.8km/h 99% 0.00in /  0mm 254 W/m2
08:44 48.4 °F /  9.1 °C 48.1 °F /  8.9 °C 30.47in /  1031.7hPa NNW 3mph /  4.8km/h 4mph /  6.4km/h 99% 0.00in /  0mm 391 W/m2
08:49 49 °F /  9.4 °C 48.8 °F /  9.3 °C 30.47in /  1031.7hPa NNW 2.3mph /  3.7km/h 4mph /  6.4km/h 99% 0.00in /  0mm 442 W/m2
08:54 50 °F /  10 °C 49.8 °F /  9.9 °C 30.47in /  1031.7hPa NNW 2.7mph /  4.3km/h 1.6mph /  2.6km/h 99% 0.00in /  0mm 429 W/m2
08:59 50.8 °F /  10.4 °C 50.5 °F /  10.3 °C 30.47in /  1031.7hPa NNW 2.4mph /  3.9km/h 4mph /  6.4km/h 99% 0.00in /  0mm 435 W/m2
09:04 51 °F /  10.6 °C 50.5 °F /  10.3 °C 30.47in /  1031.7hPa NNE 3.7mph /  6km/h 3mph /  4.8km/h 98.1% 0.00in /  0mm 363 W/m2
09:09 50.5 °F /  10.3 °C 49.9 °F /  9.9 °C 30.47in /  1031.7hPa East 3.4mph /  5.5km/h 5mph /  8km/h 97.4% 0.00in /  0mm 367 W/m2
09:14 50.8 °F /  10.4 °C 49.8 °F /  9.9 °C 30.47in /  1031.7hPa SE 2.9mph /  4.7km/h 5mph /  8km/h 96.5% 0.00in /  0mm 362 W/m2
09:19 50.8 °F /  10.4 °C 49.6 °F /  9.8 °C 30.47in /  1031.7hPa South 3.9mph /  6.3km/h 4mph /  6.4km/h 95.7% 0.00in /  0mm 325 W/m2
09:24 50.8 °F /  10.4 °C 49.9 °F /  9.9 °C 30.47in /  1031.7hPa South 3.8mph /  6.1km/h 5mph /  8km/h 96.8% 0.00in /  0mm 434 W/m2
09:29 51 °F /  10.6 °C 49.7 °F /  9.8 °C 30.47in /  1031.7hPa South 2.7mph /  4.3km/h 5mph /  8km/h 95.4% 0.00in /  0mm 449 W/m2
09:34 51.2 °F /  10.7 °C 50.1 °F /  10.1 °C 30.47in /  1031.7hPa South 2.1mph /  3.4km/h 3mph /  4.8km/h 96.2% 0.00in /  0mm 402 W/m2
09:39 51.4 °F /  10.8 °C 50.1 °F /  10.1 °C 30.47in /  1031.7hPa South 2.7mph /  4.3km/h 3mph /  4.8km/h 95.1% 0.00in /  0mm 392 W/m2
09:44 51.8 °F /  11 °C 50.4 °F /  10.2 °C 30.47in /  1031.7hPa South 4.3mph /  6.9km/h 3mph /  4.8km/h 95.2% 0.00in /  0mm 422 W/m2
09:49 52.5 °F /  11.4 °C 51.1 °F /  10.6 °C 30.47in /  1031.7hPa South 3.3mph /  5.3km/h 6mph /  9.7km/h 94.9% 0.00in /  0mm 445 W/m2
09:54 52.9 °F /  11.6 °C 51.1 °F /  10.6 °C 30.47in /  1031.7hPa SSW 4.7mph /  7.6km/h 4mph /  6.4km/h 93.9% 0.00in /  0mm 484 W/m2
09:59 53 °F /  11.7 °C 51.2 °F /  10.7 °C 30.47in /  1031.7hPa SSW 3.4mph /  5.5km/h 6mph /  9.7km/h 93.6% 0.00in /  0mm 516 W/m2
10:04 53.5 °F /  11.9 °C 51.5 °F /  10.8 °C 30.47in /  1031.7hPa SSW 3.2mph /  5.1km/h 4mph /  6.4km/h 92.9% 0.00in /  0mm 518 W/m2
10:09 54.2 °F /  12.3 °C 52 °F /  11.1 °C 30.47in /  1031.7hPa SW 1.7mph /  2.7km/h 4mph /  6.4km/h 92.2% 0.00in /  0mm 513 W/m2
10:14 55.1 °F /  12.8 °C 52.2 °F /  11.2 °C 30.47in /  1031.7hPa WSW 4.4mph /  7.1km/h 4.2mph /  6.8km/h 90% 0.00in /  0mm 529 W/m2
10:19 55.2 °F /  12.9 °C 51.1 °F /  10.6 °C 30.47in /  1031.7hPa NW 7.5mph /  12.1km/h 7mph /  11.3km/h 85.8% 0.00in /  0mm 545 W/m2
10:24 55.6 °F /  13.1 °C 51.2 °F /  10.7 °C 30.46in /  1031.4hPa North 7.9mph /  12.7km/h 9mph /  14.5km/h 85.2% 0.00in /  0mm 623 W/m2
10:29 56.1 °F /  13.4 °C 50.9 °F /  10.5 °C 30.47in /  1031.7hPa North 8.2mph /  13.2km/h 9mph /  14.5km/h 82.5% 0.00in /  0mm 579 W/m2
10:34 56.8 °F /  13.8 °C 50.8 °F /  10.4 °C 30.47in /  1031.7hPa NNE 7.5mph /  12.1km/h 9mph /  14.5km/h 80.2% 0.00in /  0mm 599 W/m2
10:39 57.1 °F /  13.9 °C 50.8 °F /  10.4 °C 30.47in /  1031.7hPa NNE 7.6mph /  12.2km/h 9mph /  14.5km/h 79.6% 0.00in /  0mm 586 W/m2
10:44 57 °F /  13.9 °C 50.6 °F /  10.3 °C 30.47in /  1031.7hPa NE 9.7mph /  15.6km/h 9mph /  14.5km/h 79% 0.00in /  0mm 516 W/m2
10:49 57.1 °F /  13.9 °C 50.8 °F /  10.4 °C 30.46in /  1031.4hPa NE 9.2mph /  14.8km/h 13mph /  20.9km/h 79.2% 0.00in /  0mm 582 W/m2
10:54 57.6 °F /  14.2 °C 51.1 °F /  10.6 °C 30.46in /  1031.4hPa NNE 7.4mph /  11.9km/h 12mph /  19.3km/h 78.8% 0.00in /  0mm 564 W/m2
10:59 57.9 °F /  14.4 °C 50.6 °F /  10.3 °C 30.46in /  1031.4hPa North 6.3mph /  10.1km/h 8mph /  12.9km/h 76.5% 0.00in /  0mm 531 W/m2
11:04 57.8 °F /  14.3 °C 49.1 °F /  9.5 °C 30.46in /  1031.4hPa NNE 7.1mph /  11.4km/h 8mph /  12.9km/h 72.8% 0.00in /  0mm 430 W/m2
11:09 57.4 °F /  14.1 °C 48.9 °F /  9.4 °C 30.46in /  1031.4hPa NNE 9.8mph /  15.8km/h 9mph /  14.5km/h 73% 0.00in /  0mm 138 W/m2
11:14 56.5 °F /  13.6 °C 47.1 °F /  8.4 °C 30.45in /  1031hPa NNE 12.9mph /  20.8km/h 12mph /  19.3km/h 70.8% 0.00in /  0mm 156 W/m2
11:19 55.8 °F /  13.2 °C 47.1 °F /  8.4 °C 30.45in /  1031hPa NE 9.6mph /  15.4km/h 16mph /  25.7km/h 72.6% 0.00in /  0mm 318 W/m2
11:24 55.8 °F /  13.2 °C 47.3 °F /  8.5 °C 30.46in /  1031.4hPa ENE 8.2mph /  13.2km/h 14mph /  22.5km/h 73% 0.00in /  0mm 449 W/m2
11:29 56.3 °F /  13.5 °C 48.3 °F /  9.1 °C 30.45in /  1031hPa NE 7.7mph /  12.4km/h 9mph /  14.5km/h 74.7% 0.00in /  0mm 393 W/m2
11:34 56.8 °F /  13.8 °C 49.1 °F /  9.5 °C 30.45in /  1031hPa NNE 11.3mph /  18.2km/h 12mph /  19.3km/h 75.5% 0.00in /  0mm 500 W/m2
11:39 57 °F /  13.9 °C 49.6 °F /  9.8 °C 30.45in /  1031hPa North 7.8mph /  12.6km/h 14mph /  22.5km/h 76.1% 0.00in /  0mm 373 W/m2
11:44 56.7 °F /  13.7 °C 49.6 °F /  9.8 °C 30.45in /  1031hPa North 9.2mph /  14.8km/h 9mph /  14.5km/h 77% 0.00in /  0mm 226 W/m2
11:49 56 °F /  13.3 °C 49 °F /  9.4 °C 30.45in /  1031hPa North 9.9mph /  15.9km/h 12mph /  19.3km/h 77.3% 0.00in /  0mm 244 W/m2
11:54 55.8 °F /  13.2 °C 48.8 °F /  9.3 °C 30.45in /  1031hPa North 7.7mph /  12.4km/h 11mph /  17.7km/h 77.2% 0.00in /  0mm 283 W/m2
11:59 55.8 °F /  13.2 °C 48.6 °F /  9.2 °C 30.45in /  1031hPa North 10mph /  16.1km/h 13mph /  20.9km/h 76.7% 0.00in /  0mm 319 W/m2
12:04 55.7 °F /  13.2 °C 49 °F /  9.4 °C 30.45in /  1031hPa North 9mph /  14.5km/h 12mph /  19.3km/h 78.2% 0.00in /  0mm 504 W/m2
12:09 56.1 °F /  13.4 °C 49.3 °F /  9.6 °C 30.45in /  1031hPa North 8mph /  12.9km/h 10mph /  16.1km/h 78% 0.00in /  0mm 466 W/m2
12:14 56.9 °F /  13.8 °C 50.2 °F /  10.1 °C 30.45in /  1031hPa North 9.3mph /  15km/h 10mph /  16.1km/h 78.2% 0.00in /  0mm 472 W/m2
12:19 57.4 °F /  14.1 °C 50.1 °F /  10.1 °C 30.45in /  1031hPa North 10.4mph /  16.7km/h 12mph /  19.3km/h 76.5% 0.00in /  0mm 513 W/m2
12:24 57.8 °F /  14.3 °C 47.8 °F /  8.8 °C 30.45in /  1031hPa NE 12.4mph /  20km/h 14mph /  22.5km/h 69.4% 0.00in /  0mm 561 W/m2
12:29 58 °F /  14.4 °C 47.1 °F /  8.4 °C 30.45in /  1031hPa ENE 10.2mph /  16.4km/h 15mph /  24.1km/h 67% 0.00in /  0mm 513 W/m2
12:34 57.8 °F /  14.3 °C 46.6 °F /  8.1 °C 30.45in /  1031hPa ENE 12.4mph /  20km/h 16mph /  25.7km/h 66.1% 0.00in /  0mm 385 W/m2
12:39 56.9 °F /  13.8 °C 45.6 °F /  7.6 °C 30.45in /  1031hPa NE 12.4mph /  20km/h 18mph /  29km/h 65.7% 0.00in /  0mm 190 W/m2
12:44 56.3 °F /  13.5 °C 45.3 °F /  7.4 °C 30.45in /  1031hPa NE 8.7mph /  14km/h 16mph /  25.7km/h 66.5% 0.00in /  0mm 218 W/m2
12:49 56.2 °F /  13.4 °C 46.2 °F /  7.9 °C 30.45in /  1031hPa ENE 9.1mph /  14.6km/h 12mph /  19.3km/h 68.9% 0.00in /  0mm 562 W/m2
12:54 57 °F /  13.9 °C 47.2 °F /  8.4 °C 30.45in /  1031hPa NE 11.7mph /  18.8km/h 13mph /  20.9km/h 69.7% 0.00in /  0mm 532 W/m2
12:59 57.8 °F /  14.3 °C 48.1 °F /  8.9 °C 30.45in /  1031hPa NNE 9mph /  14.5km/h 13mph /  20.9km/h 70% 0.00in /  0mm 527 W/m2
13:04 58.4 °F /  14.7 °C 48.5 °F /  9.2 °C 30.45in /  1031hPa NNE 10.6mph /  17.1km/h 11mph /  17.7km/h 69.8% 0.00in /  0mm 469 W/m2
13:09 58.4 °F /  14.7 °C 48.4 °F /  9.1 °C 30.44in /  1030.7hPa NNE 10.3mph /  16.6km/h 12mph /  19.3km/h 69.4% 0.00in /  0mm 485 W/m2
13:14 58.3 °F /  14.6 °C 48.4 °F /  9.1 °C 30.44in /  1030.7hPa NNE 8.3mph /  13.4km/h 12mph /  19.3km/h 69.7% 0.00in /  0mm 466 W/m2
13:19 58.3 °F /  14.6 °C 48.5 °F /  9.2 °C 30.44in /  1030.7hPa NNE 9.8mph /  15.8km/h 11mph /  17.7km/h 70% 0.00in /  0mm 507 W/m2
13:24 58.5 °F /  14.7 °C 48.6 °F /  9.2 °C 30.44in /  1030.7hPa NNE 11.3mph /  18.2km/h 11mph /  17.7km/h 69.8% 0.00in /  0mm 489 W/m2
13:29 58.6 °F /  14.8 °C 48.9 °F /  9.4 °C 30.44in /  1030.7hPa North 9.4mph /  15.1km/h 14mph /  22.5km/h 70% 0.00in /  0mm 466 W/m2
13:34 58.6 °F /  14.8 °C 48.9 °F /  9.4 °C 30.44in /  1030.7hPa North 10.1mph /  16.3km/h 12mph /  19.3km/h 70% 0.00in /  0mm 423 W/m2
Knjazevac, Serbia
Compliments of Weather Underground - 2 mb